sensor_id;sensor_type;location;lat;lon;timestamp;P1;durP1;ratioP1;P2;durP2;ratioP2
8088;SDS011;57635;49.194;12.104;2022-09-20T00:01:19;3.90;;;3.60;;
8088;SDS011;57635;49.194;12.104;2022-09-20T00:03:52;3.17;;;3.07;;
8088;SDS011;57635;49.194;12.104;2022-09-20T00:06:22;4.97;;;3.97;;
8088;SDS011;57635;49.194;12.104;2022-09-20T00:08:51;4.13;;;3.93;;
8088;SDS011;57635;49.194;12.104;2022-09-20T00:11:20;3.83;;;3.50;;
8088;SDS011;57635;49.194;12.104;2022-09-20T00:13:50;4.93;;;3.77;;
8088;SDS011;57635;49.194;12.104;2022-09-20T00:16:22;3.70;;;3.40;;
8088;SDS011;57635;49.194;12.104;2022-09-20T00:18:52;5.17;;;3.33;;
8088;SDS011;57635;49.194;12.104;2022-09-20T00:21:22;3.67;;;3.47;;
8088;SDS011;57635;49.194;12.104;2022-09-20T00:23:52;3.97;;;3.67;;
8088;SDS011;57635;49.194;12.104;2022-09-20T00:26:22;4.17;;;3.87;;
8088;SDS011;57635;49.194;12.104;2022-09-20T00:28:51;3.73;;;3.50;;
8088;SDS011;57635;49.194;12.104;2022-09-20T00:31:19;4.27;;;3.87;;
8088;SDS011;57635;49.194;12.104;2022-09-20T00:33:49;3.90;;;3.60;;
8088;SDS011;57635;49.194;12.104;2022-09-20T00:36:38;7.03;;;3.67;;
8088;SDS011;57635;49.194;12.104;2022-09-20T00:39:08;3.97;;;3.67;;
8088;SDS011;57635;49.194;12.104;2022-09-20T00:41:39;4.67;;;4.27;;
8088;SDS011;57635;49.194;12.104;2022-09-20T00:47:11;3.80;;;3.50;;
8088;SDS011;57635;49.194;12.104;2022-09-20T00:49:44;3.87;;;3.60;;
8088;SDS011;57635;49.194;12.104;2022-09-20T00:52:13;4.20;;;3.80;;
8088;SDS011;57635;49.194;12.104;2022-09-20T00:58:06;7.60;;;4.10;;
8088;SDS011;57635;49.194;12.104;2022-09-20T01:00:36;4.63;;;4.23;;
8088;SDS011;57635;49.194;12.104;2022-09-20T01:03:06;5.37;;;4.70;;
8088;SDS011;57635;49.194;12.104;2022-09-20T01:05:37;4.30;;;4.00;;
8088;SDS011;57635;49.194;12.104;2022-09-20T01:08:07;4.87;;;4.17;;
8088;SDS011;57635;49.194;12.104;2022-09-20T01:10:36;4.00;;;3.67;;
8088;SDS011;57635;49.194;12.104;2022-09-20T01:13:04;4.37;;;4.07;;
8088;SDS011;57635;49.194;12.104;2022-09-20T01:15:34;4.47;;;4.17;;
8088;SDS011;57635;49.194;12.104;2022-09-20T01:18:04;3.97;;;3.60;;
8088;SDS011;57635;49.194;12.104;2022-09-20T01:20:34;4.40;;;4.00;;
8088;SDS011;57635;49.194;12.104;2022-09-20T01:23:14;8.00;;;4.60;;
8088;SDS011;57635;49.194;12.104;2022-09-20T01:29:06;5.67;;;3.97;;
8088;SDS011;57635;49.194;12.104;2022-09-20T01:31:39;4.90;;;4.40;;
8088;SDS011;57635;49.194;12.104;2022-09-20T01:34:13;4.50;;;4.10;;
8088;SDS011;57635;49.194;12.104;2022-09-20T01:36:44;4.80;;;4.30;;
8088;SDS011;57635;49.194;12.104;2022-09-20T01:39:17;5.87;;;4.20;;
8088;SDS011;57635;49.194;12.104;2022-09-20T01:41:54;6.10;;;4.40;;
8088;SDS011;57635;49.194;12.104;2022-09-20T01:44:29;5.07;;;4.57;;
8088;SDS011;57635;49.194;12.104;2022-09-20T01:47:04;4.53;;;4.10;;
8088;SDS011;57635;49.194;12.104;2022-09-20T01:49:40;5.30;;;3.90;;
8088;SDS011;57635;49.194;12.104;2022-09-20T02:04:42;4.40;;;4.00;;
8088;SDS011;57635;49.194;12.104;2022-09-20T02:07:32;4.47;;;4.07;;
8088;SDS011;57635;49.194;12.104;2022-09-20T02:10:09;4.77;;;4.30;;
8088;SDS011;57635;49.194;12.104;2022-09-20T02:12:51;5.97;;;4.53;;
8088;SDS011;57635;49.194;12.104;2022-09-20T02:15:28;6.10;;;4.33;;
8088;SDS011;57635;49.194;12.104;2022-09-20T02:18:07;5.47;;;4.73;;
8088;SDS011;57635;49.194;12.104;2022-09-20T02:20:43;5.60;;;5.03;;
8088;SDS011;57635;49.194;12.104;2022-09-20T02:23:21;6.03;;;5.43;;
8088;SDS011;57635;49.194;12.104;2022-09-20T02:26:02;5.57;;;4.57;;
8088;SDS011;57635;49.194;12.104;2022-09-20T02:28:43;6.07;;;4.73;;
8088;SDS011;57635;49.194;12.104;2022-09-20T02:31:22;4.97;;;4.20;;
8088;SDS011;57635;49.194;12.104;2022-09-20T02:34:12;4.37;;;3.83;;
8088;SDS011;57635;49.194;12.104;2022-09-20T02:37:05;5.23;;;4.67;;
8088;SDS011;57635;49.194;12.104;2022-09-20T02:39:45;4.60;;;4.30;;
8088;SDS011;57635;49.194;12.104;2022-09-20T02:42:21;7.10;;;4.90;;
8088;SDS011;57635;49.194;12.104;2022-09-20T02:44:54;4.53;;;4.23;;
8088;SDS011;57635;49.194;12.104;2022-09-20T02:47:30;8.07;;;4.67;;
8088;SDS011;57635;49.194;12.104;2022-09-20T02:50:10;5.03;;;4.63;;
8088;SDS011;57635;49.194;12.104;2022-09-20T02:52:50;4.97;;;4.10;;
8088;SDS011;57635;49.194;12.104;2022-09-20T02:55:26;4.73;;;4.33;;
8088;SDS011;57635;49.194;12.104;2022-09-20T02:58:04;7.33;;;4.40;;
8088;SDS011;57635;49.194;12.104;2022-09-20T03:00:44;5.30;;;4.77;;
8088;SDS011;57635;49.194;12.104;2022-09-20T03:03:17;4.90;;;4.50;;
8088;SDS011;57635;49.194;12.104;2022-09-20T03:05:54;4.83;;;4.43;;
8088;SDS011;57635;49.194;12.104;2022-09-20T03:08:28;5.10;;;4.60;;
8088;SDS011;57635;49.194;12.104;2022-09-20T03:11:02;5.27;;;4.73;;
8088;SDS011;57635;49.194;12.104;2022-09-20T03:13:42;7.17;;;4.27;;
8088;SDS011;57635;49.194;12.104;2022-09-20T03:16:19;4.73;;;4.30;;
8088;SDS011;57635;49.194;12.104;2022-09-20T03:18:51;5.33;;;4.37;;
8088;SDS011;57635;49.194;12.104;2022-09-20T03:21:30;4.93;;;4.53;;
8088;SDS011;57635;49.194;12.104;2022-09-20T03:24:07;4.40;;;4.10;;
8088;SDS011;57635;49.194;12.104;2022-09-20T03:26:42;5.00;;;4.40;;
8088;SDS011;57635;49.194;12.104;2022-09-20T03:29:17;8.37;;;4.50;;
8088;SDS011;57635;49.194;12.104;2022-09-20T03:31:57;5.83;;;4.60;;
8088;SDS011;57635;49.194;12.104;2022-09-20T03:34:36;4.13;;;3.83;;
8088;SDS011;57635;49.194;12.104;2022-09-20T03:37:27;4.70;;;4.00;;
8088;SDS011;57635;49.194;12.104;2022-09-20T03:43:13;4.70;;;4.23;;
8088;SDS011;57635;49.194;12.104;2022-09-20T03:45:55;4.80;;;4.40;;
8088;SDS011;57635;49.194;12.104;2022-09-20T03:51:30;7.13;;;4.57;;
8088;SDS011;57635;49.194;12.104;2022-09-20T03:57:28;5.97;;;4.53;;
8088;SDS011;57635;49.194;12.104;2022-09-20T04:00:21;6.23;;;4.40;;
8088;SDS011;57635;49.194;12.104;2022-09-20T04:02:57;4.73;;;4.37;;
8088;SDS011;57635;49.194;12.104;2022-09-20T04:05:32;6.43;;;4.57;;
8088;SDS011;57635;49.194;12.104;2022-09-20T04:08:08;5.13;;;3.93;;
8088;SDS011;57635;49.194;12.104;2022-09-20T04:10:49;4.70;;;3.77;;
8088;SDS011;57635;49.194;12.104;2022-09-20T04:13:35;4.40;;;4.03;;
8088;SDS011;57635;49.194;12.104;2022-09-20T04:16:12;4.07;;;3.77;;
8088;SDS011;57635;49.194;12.104;2022-09-20T04:18:49;8.13;;;4.23;;
8088;SDS011;57635;49.194;12.104;2022-09-20T04:21:24;3.90;;;3.70;;
8088;SDS011;57635;49.194;12.104;2022-09-20T04:23:58;4.80;;;4.40;;
8088;SDS011;57635;49.194;12.104;2022-09-20T04:26:30;4.57;;;3.93;;
8088;SDS011;57635;49.194;12.104;2022-09-20T04:29:04;4.83;;;4.53;;
8088;SDS011;57635;49.194;12.104;2022-09-20T04:31:44;4.37;;;3.97;;
8088;SDS011;57635;49.194;12.104;2022-09-20T04:34:21;4.37;;;3.93;;
8088;SDS011;57635;49.194;12.104;2022-09-20T04:37:20;5.53;;;3.80;;
8088;SDS011;57635;49.194;12.104;2022-09-20T04:39:53;4.10;;;3.80;;
8088;SDS011;57635;49.194;12.104;2022-09-20T04:42:33;3.93;;;3.57;;
8088;SDS011;57635;49.194;12.104;2022-09-20T04:45:17;3.37;;;3.17;;
8088;SDS011;57635;49.194;12.104;2022-09-20T04:48:13;6.27;;;4.07;;
8088;SDS011;57635;49.194;12.104;2022-09-20T04:54:24;4.20;;;3.80;;
8088;SDS011;57635;49.194;12.104;2022-09-20T04:57:25;3.90;;;3.63;;
8088;SDS011;57635;49.194;12.104;2022-09-20T05:00:05;3.90;;;3.63;;
8088;SDS011;57635;49.194;12.104;2022-09-20T05:02:53;4.23;;;3.93;;
8088;SDS011;57635;49.194;12.104;2022-09-20T05:05:50;3.90;;;3.53;;
8088;SDS011;57635;49.194;12.104;2022-09-20T05:11:24;4.30;;;4.00;;
8088;SDS011;57635;49.194;12.104;2022-09-20T05:14:16;4.20;;;3.80;;
8088;SDS011;57635;49.194;12.104;2022-09-20T05:17:05;4.20;;;3.90;;
8088;SDS011;57635;49.194;12.104;2022-09-20T05:19:46;4.20;;;3.90;;
8088;SDS011;57635;49.194;12.104;2022-09-20T05:25:38;4.47;;;4.03;;
8088;SDS011;57635;49.194;12.104;2022-09-20T05:28:12;4.30;;;3.90;;
8088;SDS011;57635;49.194;12.104;2022-09-20T05:30:45;6.97;;;4.40;;
8088;SDS011;57635;49.194;12.104;2022-09-20T05:33:18;6.00;;;4.30;;
8088;SDS011;57635;49.194;12.104;2022-09-20T05:35:55;6.67;;;4.63;;
8088;SDS011;57635;49.194;12.104;2022-09-20T05:38:29;6.30;;;5.70;;
8088;SDS011;57635;49.194;12.104;2022-09-20T05:41:05;5.90;;;5.37;;
8088;SDS011;57635;49.194;12.104;2022-09-20T05:43:37;5.83;;;5.23;;
8088;SDS011;57635;49.194;12.104;2022-09-20T05:46:15;4.63;;;4.23;;
8088;SDS011;57635;49.194;12.104;2022-09-20T05:48:51;5.43;;;4.93;;
8088;SDS011;57635;49.194;12.104;2022-09-20T05:51:29;4.87;;;4.57;;
8088;SDS011;57635;49.194;12.104;2022-09-20T05:54:06;5.70;;;5.17;;
8088;SDS011;57635;49.194;12.104;2022-09-20T05:56:57;6.20;;;5.70;;
8088;SDS011;57635;49.194;12.104;2022-09-20T05:59:39;6.53;;;5.97;;
8088;SDS011;57635;49.194;12.104;2022-09-20T06:02:28;5.90;;;5.40;;
8088;SDS011;57635;49.194;12.104;2022-09-20T06:05:02;5.83;;;5.23;;
8088;SDS011;57635;49.194;12.104;2022-09-20T06:10:40;5.97;;;5.30;;
8088;SDS011;57635;49.194;12.104;2022-09-20T06:13:17;5.33;;;4.80;;
8088;SDS011;57635;49.194;12.104;2022-09-20T06:15:57;6.77;;;5.20;;
8088;SDS011;57635;49.194;12.104;2022-09-20T06:18:28;6.10;;;5.50;;
8088;SDS011;57635;49.194;12.104;2022-09-20T06:21:02;7.13;;;5.00;;
8088;SDS011;57635;49.194;12.104;2022-09-20T06:23:37;8.07;;;5.57;;
8088;SDS011;57635;49.194;12.104;2022-09-20T06:26:06;5.97;;;5.03;;
8088;SDS011;57635;49.194;12.104;2022-09-20T06:28:37;6.43;;;5.13;;
8088;SDS011;57635;49.194;12.104;2022-09-20T06:31:08;4.33;;;3.93;;
8088;SDS011;57635;49.194;12.104;2022-09-20T06:33:41;5.93;;;3.93;;
8088;SDS011;57635;49.194;12.104;2022-09-20T06:36:11;5.43;;;4.93;;
8088;SDS011;57635;49.194;12.104;2022-09-20T06:39:01;4.10;;;3.70;;
8088;SDS011;57635;49.194;12.104;2022-09-20T06:41:52;4.90;;;3.77;;
8088;SDS011;57635;49.194;12.104;2022-09-20T06:44:21;6.73;;;4.73;;
8088;SDS011;57635;49.194;12.104;2022-09-20T06:46:49;4.13;;;3.77;;
8088;SDS011;57635;49.194;12.104;2022-09-20T06:49:20;3.73;;;3.30;;
8088;SDS011;57635;49.194;12.104;2022-09-20T06:51:49;6.47;;;4.13;;
8088;SDS011;57635;49.194;12.104;2022-09-20T06:54:19;3.33;;;3.03;;
8088;SDS011;57635;49.194;12.104;2022-09-20T06:56:48;4.70;;;2.80;;
8088;SDS011;57635;49.194;12.104;2022-09-20T06:59:17;3.40;;;3.07;;
8088;SDS011;57635;49.194;12.104;2022-09-20T07:01:46;5.97;;;3.07;;
8088;SDS011;57635;49.194;12.104;2022-09-20T07:04:14;3.50;;;2.57;;
8088;SDS011;57635;49.194;12.104;2022-09-20T07:06:43;2.93;;;2.37;;
8088;SDS011;57635;49.194;12.104;2022-09-20T07:09:11;3.47;;;3.03;;
8088;SDS011;57635;49.194;12.104;2022-09-20T07:11:40;3.43;;;2.20;;
8088;SDS011;57635;49.194;12.104;2022-09-20T07:14:10;2.60;;;2.30;;
8088;SDS011;57635;49.194;12.104;2022-09-20T07:16:38;4.17;;;2.70;;
8088;SDS011;57635;49.194;12.104;2022-09-20T07:19:07;2.60;;;2.00;;
8088;SDS011;57635;49.194;12.104;2022-09-20T07:21:35;3.13;;;2.03;;
8088;SDS011;57635;49.194;12.104;2022-09-20T07:24:04;3.63;;;3.00;;
8088;SDS011;57635;49.194;12.104;2022-09-20T07:26:32;4.60;;;1.97;;
8088;SDS011;57635;49.194;12.104;2022-09-20T07:29:02;2.80;;;2.50;;
8088;SDS011;57635;49.194;12.104;2022-09-20T07:31:32;5.63;;;2.40;;
8088;SDS011;57635;49.194;12.104;2022-09-20T07:34:00;6.30;;;2.70;;
8088;SDS011;57635;49.194;12.104;2022-09-20T07:36:28;6.20;;;2.37;;
8088;SDS011;57635;49.194;12.104;2022-09-20T07:38:57;3.93;;;2.53;;
8088;SDS011;57635;49.194;12.104;2022-09-20T07:41:25;2.63;;;2.10;;
8088;SDS011;57635;49.194;12.104;2022-09-20T07:43:59;2.70;;;2.17;;
8088;SDS011;57635;49.194;12.104;2022-09-20T07:46:48;4.00;;;1.90;;
8088;SDS011;57635;49.194;12.104;2022-09-20T07:49:16;2.77;;;1.97;;
8088;SDS011;57635;49.194;12.104;2022-09-20T07:51:45;2.87;;;2.50;;
8088;SDS011;57635;49.194;12.104;2022-09-20T07:54:13;3.40;;;3.10;;
8088;SDS011;57635;49.194;12.104;2022-09-20T07:56:42;2.63;;;2.20;;
8088;SDS011;57635;49.194;12.104;2022-09-20T07:59:11;6.87;;;2.00;;
8088;SDS011;57635;49.194;12.104;2022-09-20T08:01:40;2.37;;;2.10;;
8088;SDS011;57635;49.194;12.104;2022-09-20T08:04:10;3.03;;;1.90;;
8088;SDS011;57635;49.194;12.104;2022-09-20T08:06:39;4.70;;;3.33;;
8088;SDS011;57635;49.194;12.104;2022-09-20T08:09:08;5.40;;;2.60;;
8088;SDS011;57635;49.194;12.104;2022-09-20T08:11:37;5.23;;;2.37;;
8088;SDS011;57635;49.194;12.104;2022-09-20T08:14:08;4.30;;;2.63;;
8088;SDS011;57635;49.194;12.104;2022-09-20T08:16:40;3.50;;;2.97;;
8088;SDS011;57635;49.194;12.104;2022-09-20T08:19:14;4.20;;;2.93;;
8088;SDS011;57635;49.194;12.104;2022-09-20T08:21:43;5.80;;;3.30;;
8088;SDS011;57635;49.194;12.104;2022-09-20T08:24:12;14.27;;;3.50;;
8088;SDS011;57635;49.194;12.104;2022-09-20T08:26:42;5.77;;;2.83;;
8088;SDS011;57635;49.194;12.104;2022-09-20T08:29:10;2.47;;;2.27;;
8088;SDS011;57635;49.194;12.104;2022-09-20T08:31:40;5.47;;;2.57;;
8088;SDS011;57635;49.194;12.104;2022-09-20T08:34:09;4.03;;;2.43;;
8088;SDS011;57635;49.194;12.104;2022-09-20T08:36:41;5.57;;;3.17;;
8088;SDS011;57635;49.194;12.104;2022-09-20T08:39:12;4.07;;;2.50;;
8088;SDS011;57635;49.194;12.104;2022-09-20T08:42:04;4.23;;;3.43;;
8088;SDS011;57635;49.194;12.104;2022-09-20T08:44:40;3.47;;;3.00;;
8088;SDS011;57635;49.194;12.104;2022-09-20T08:47:24;2.10;;;1.90;;
8088;SDS011;57635;49.194;12.104;2022-09-20T08:49:54;2.70;;;2.50;;
8088;SDS011;57635;49.194;12.104;2022-09-20T08:52:26;4.07;;;2.00;;
8088;SDS011;57635;49.194;12.104;2022-09-20T08:55:01;1.90;;;1.60;;
8088;SDS011;57635;49.194;12.104;2022-09-20T08:57:33;3.00;;;1.90;;
8088;SDS011;57635;49.194;12.104;2022-09-20T09:00:03;2.30;;;1.80;;
8088;SDS011;57635;49.194;12.104;2022-09-20T09:02:32;7.90;;;2.00;;
8088;SDS011;57635;49.194;12.104;2022-09-20T09:05:01;2.00;;;1.63;;
8088;SDS011;57635;49.194;12.104;2022-09-20T09:07:31;2.00;;;1.30;;
8088;SDS011;57635;49.194;12.104;2022-09-20T09:10:00;3.57;;;2.13;;
8088;SDS011;57635;49.194;12.104;2022-09-20T09:12:29;2.60;;;2.13;;
8088;SDS011;57635;49.194;12.104;2022-09-20T09:14:58;2.07;;;1.83;;
8088;SDS011;57635;49.194;12.104;2022-09-20T09:17:29;1.90;;;1.40;;
8088;SDS011;57635;49.194;12.104;2022-09-20T09:19:57;3.77;;;1.87;;
8088;SDS011;57635;49.194;12.104;2022-09-20T09:22:27;1.40;;;1.30;;
8088;SDS011;57635;49.194;12.104;2022-09-20T09:25:18;1.33;;;1.23;;
8088;SDS011;57635;49.194;12.104;2022-09-20T09:27:50;1.90;;;1.33;;
8088;SDS011;57635;49.194;12.104;2022-09-20T09:30:23;1.60;;;1.23;;
8088;SDS011;57635;49.194;12.104;2022-09-20T09:33:13;2.87;;;1.60;;
8088;SDS011;57635;49.194;12.104;2022-09-20T09:35:52;4.43;;;1.43;;
8088;SDS011;57635;49.194;12.104;2022-09-20T09:38:22;3.10;;;1.50;;
8088;SDS011;57635;49.194;12.104;2022-09-20T09:40:54;1.93;;;1.20;;
8088;SDS011;57635;49.194;12.104;2022-09-20T09:43:23;2.67;;;1.10;;
8088;SDS011;57635;49.194;12.104;2022-09-20T09:45:55;2.83;;;1.47;;
8088;SDS011;57635;49.194;12.104;2022-09-20T09:48:43;3.43;;;1.47;;
8088;SDS011;57635;49.194;12.104;2022-09-20T09:51:16;1.37;;;1.00;;
8088;SDS011;57635;49.194;12.104;2022-09-20T09:53:46;1.67;;;0.90;;
8088;SDS011;57635;49.194;12.104;2022-09-20T09:56:29;1.17;;;1.07;;
8088;SDS011;57635;49.194;12.104;2022-09-20T09:59:08;2.07;;;1.60;;
8088;SDS011;57635;49.194;12.104;2022-09-20T10:01:52;1.53;;;1.17;;
8088;SDS011;57635;49.194;12.104;2022-09-20T10:04:26;2.43;;;1.00;;
8088;SDS011;57635;49.194;12.104;2022-09-20T10:06:59;3.20;;;1.73;;
8088;SDS011;57635;49.194;12.104;2022-09-20T10:09:34;4.07;;;1.67;;
8088;SDS011;57635;49.194;12.104;2022-09-20T10:12:17;1.30;;;1.20;;
8088;SDS011;57635;49.194;12.104;2022-09-20T10:14:58;2.47;;;1.27;;
8088;SDS011;57635;49.194;12.104;2022-09-20T10:17:37;1.90;;;1.67;;
8088;SDS011;57635;49.194;12.104;2022-09-20T10:20:20;1.83;;;1.47;;
8088;SDS011;57635;49.194;12.104;2022-09-20T10:23:01;1.27;;;1.20;;
8088;SDS011;57635;49.194;12.104;2022-09-20T10:25:58;2.07;;;1.23;;
8088;SDS011;57635;49.194;12.104;2022-09-20T10:28:36;1.57;;;1.10;;
8088;SDS011;57635;49.194;12.104;2022-09-20T10:31:19;1.27;;;1.17;;
8088;SDS011;57635;49.194;12.104;2022-09-20T10:33:59;2.30;;;1.60;;
8088;SDS011;57635;49.194;12.104;2022-09-20T10:36:41;1.30;;;1.03;;
8088;SDS011;57635;49.194;12.104;2022-09-20T10:39:15;3.33;;;1.70;;
8088;SDS011;57635;49.194;12.104;2022-09-20T10:41:48;2.83;;;1.37;;
8088;SDS011;57635;49.194;12.104;2022-09-20T10:44:45;1.57;;;1.20;;
8088;SDS011;57635;49.194;12.104;2022-09-20T10:47:23;2.83;;;1.53;;
8088;SDS011;57635;49.194;12.104;2022-09-20T10:49:56;2.67;;;1.60;;
8088;SDS011;57635;49.194;12.104;2022-09-20T10:52:37;3.50;;;1.60;;
8088;SDS011;57635;49.194;12.104;2022-09-20T10:55:23;3.77;;;1.43;;
8088;SDS011;57635;49.194;12.104;2022-09-20T11:00:56;3.00;;;1.40;;
8088;SDS011;57635;49.194;12.104;2022-09-20T11:03:32;1.97;;;1.50;;
8088;SDS011;57635;49.194;12.104;2022-09-20T11:06:09;1.67;;;1.57;;
8088;SDS011;57635;49.194;12.104;2022-09-20T11:08:43;1.83;;;1.37;;
8088;SDS011;57635;49.194;12.104;2022-09-20T11:11:16;1.97;;;1.60;;
8088;SDS011;57635;49.194;12.104;2022-09-20T11:13:48;1.03;;;1.03;;
8088;SDS011;57635;49.194;12.104;2022-09-20T11:16:26;1.10;;;1.00;;
8088;SDS011;57635;49.194;12.104;2022-09-20T11:18:56;2.77;;;1.10;;
8088;SDS011;57635;49.194;12.104;2022-09-20T11:21:27;1.60;;;1.20;;
8088;SDS011;57635;49.194;12.104;2022-09-20T11:24:03;3.10;;;1.10;;
8088;SDS011;57635;49.194;12.104;2022-09-20T11:26:35;1.37;;;1.27;;
8088;SDS011;57635;49.194;12.104;2022-09-20T11:29:07;3.40;;;1.40;;
8088;SDS011;57635;49.194;12.104;2022-09-20T11:31:47;1.63;;;1.60;;
8088;SDS011;57635;49.194;12.104;2022-09-20T11:34:19;1.30;;;1.23;;
8088;SDS011;57635;49.194;12.104;2022-09-20T11:36:51;4.50;;;1.93;;
8088;SDS011;57635;49.194;12.104;2022-09-20T11:39:25;3.37;;;1.90;;
8088;SDS011;57635;49.194;12.104;2022-09-20T11:41:56;3.63;;;1.90;;
8088;SDS011;57635;49.194;12.104;2022-09-20T11:44:26;2.07;;;1.97;;
8088;SDS011;57635;49.194;12.104;2022-09-20T11:46:57;2.30;;;2.03;;
8088;SDS011;57635;49.194;12.104;2022-09-20T11:49:28;2.60;;;2.40;;
8088;SDS011;57635;49.194;12.104;2022-09-20T11:52:07;4.80;;;2.43;;
8088;SDS011;57635;49.194;12.104;2022-09-20T11:54:50;3.17;;;1.83;;
8088;SDS011;57635;49.194;12.104;2022-09-20T11:57:25;3.17;;;2.10;;
8088;SDS011;57635;49.194;12.104;2022-09-20T11:59:54;1.63;;;1.53;;
8088;SDS011;57635;49.194;12.104;2022-09-20T12:02:28;2.30;;;1.33;;
8088;SDS011;57635;49.194;12.104;2022-09-20T12:05:02;1.23;;;1.13;;
8088;SDS011;57635;49.194;12.104;2022-09-20T12:07:31;1.57;;;1.17;;
8088;SDS011;57635;49.194;12.104;2022-09-20T12:10:02;1.50;;;1.40;;
8088;SDS011;57635;49.194;12.104;2022-09-20T12:12:35;1.30;;;1.20;;
8088;SDS011;57635;49.194;12.104;2022-09-20T12:15:05;2.13;;;1.40;;
8088;SDS011;57635;49.194;12.104;2022-09-20T12:26:38;4.53;;;2.60;;
8088;SDS011;57635;49.194;12.104;2022-09-20T12:32:33;1.20;;;1.20;;
8088;SDS011;57635;49.194;12.104;2022-09-20T12:38:29;3.17;;;2.73;;
8088;SDS011;57635;49.194;12.104;2022-09-20T12:41:04;2.33;;;1.63;;
8088;SDS011;57635;49.194;12.104;2022-09-20T12:43:45;1.70;;;1.60;;
8088;SDS011;57635;49.194;12.104;2022-09-20T12:46:18;1.70;;;1.13;;
8088;SDS011;57635;49.194;12.104;2022-09-20T12:48:47;1.73;;;1.63;;
8088;SDS011;57635;49.194;12.104;2022-09-20T12:51:17;2.57;;;1.70;;
8088;SDS011;57635;49.194;12.104;2022-09-20T12:54:03;2.00;;;1.10;;
8088;SDS011;57635;49.194;12.104;2022-09-20T12:56:33;0.80;;;0.80;;
8088;SDS011;57635;49.194;12.104;2022-09-20T12:59:02;2.63;;;1.20;;
8088;SDS011;57635;49.194;12.104;2022-09-20T13:01:36;1.50;;;1.30;;
8088;SDS011;57635;49.194;12.104;2022-09-20T13:07:40;1.07;;;1.00;;
8088;SDS011;57635;49.194;12.104;2022-09-20T13:10:17;0.97;;;0.93;;
8088;SDS011;57635;49.194;12.104;2022-09-20T13:12:51;1.03;;;1.03;;
8088;SDS011;57635;49.194;12.104;2022-09-20T13:15:23;1.37;;;1.20;;
8088;SDS011;57635;49.194;12.104;2022-09-20T13:17:52;1.50;;;0.93;;
8088;SDS011;57635;49.194;12.104;2022-09-20T13:20:22;2.57;;;1.37;;
8088;SDS011;57635;49.194;12.104;2022-09-20T13:22:52;0.93;;;0.80;;
8088;SDS011;57635;49.194;12.104;2022-09-20T13:25:26;1.30;;;0.90;;
8088;SDS011;57635;49.194;12.104;2022-09-20T13:27:58;1.23;;;1.13;;
8088;SDS011;57635;49.194;12.104;2022-09-20T13:30:31;0.93;;;0.80;;
8088;SDS011;57635;49.194;12.104;2022-09-20T13:33:13;1.83;;;1.73;;
8088;SDS011;57635;49.194;12.104;2022-09-20T13:35:43;1.77;;;1.50;;
8088;SDS011;57635;49.194;12.104;2022-09-20T13:38:13;1.67;;;1.10;;
8088;SDS011;57635;49.194;12.104;2022-09-20T13:41:02;2.57;;;1.40;;
8088;SDS011;57635;49.194;12.104;2022-09-20T13:43:35;1.33;;;1.20;;
8088;SDS011;57635;49.194;12.104;2022-09-20T13:46:08;2.27;;;0.97;;
8088;SDS011;57635;49.194;12.104;2022-09-20T13:48:37;1.57;;;0.90;;
8088;SDS011;57635;49.194;12.104;2022-09-20T13:51:13;4.43;;;0.90;;
8088;SDS011;57635;49.194;12.104;2022-09-20T13:53:44;0.80;;;0.80;;
8088;SDS011;57635;49.194;12.104;2022-09-20T13:56:17;1.17;;;0.80;;
8088;SDS011;57635;49.194;12.104;2022-09-20T13:58:47;1.60;;;0.87;;
8088;SDS011;57635;49.194;12.104;2022-09-20T14:01:19;0.93;;;0.80;;
8088;SDS011;57635;49.194;12.104;2022-09-20T14:03:49;1.40;;;1.13;;
8088;SDS011;57635;49.194;12.104;2022-09-20T14:06:22;1.30;;;1.20;;
8088;SDS011;57635;49.194;12.104;2022-09-20T14:08:53;1.67;;;0.70;;
8088;SDS011;57635;49.194;12.104;2022-09-20T14:11:25;1.60;;;1.10;;
8088;SDS011;57635;49.194;12.104;2022-09-20T14:13:55;1.20;;;0.90;;
8088;SDS011;57635;49.194;12.104;2022-09-20T14:16:26;1.83;;;1.03;;
8088;SDS011;57635;49.194;12.104;2022-09-20T14:18:56;1.13;;;0.80;;
8088;SDS011;57635;49.194;12.104;2022-09-20T14:21:26;1.90;;;1.10;;
8088;SDS011;57635;49.194;12.104;2022-09-20T14:23:55;1.23;;;0.80;;
8088;SDS011;57635;49.194;12.104;2022-09-20T14:26:29;1.00;;;0.90;;
8088;SDS011;57635;49.194;12.104;2022-09-20T14:31:54;1.73;;;1.00;;
8088;SDS011;57635;49.194;12.104;2022-09-20T14:34:24;0.90;;;0.90;;
8088;SDS011;57635;49.194;12.104;2022-09-20T14:36:58;0.70;;;0.60;;
8088;SDS011;57635;49.194;12.104;2022-09-20T14:39:30;2.30;;;1.17;;
8088;SDS011;57635;49.194;12.104;2022-09-20T14:42:00;1.13;;;1.00;;
8088;SDS011;57635;49.194;12.104;2022-09-20T14:44:30;2.67;;;1.50;;
8088;SDS011;57635;49.194;12.104;2022-09-20T14:46:59;2.80;;;2.60;;
8088;SDS011;57635;49.194;12.104;2022-09-20T14:49:41;15.93;;;8.77;;
8088;SDS011;57635;49.194;12.104;2022-09-20T14:55:15;2.00;;;0.90;;
8088;SDS011;57635;49.194;12.104;2022-09-20T14:57:48;1.63;;;1.53;;
8088;SDS011;57635;49.194;12.104;2022-09-20T15:00:17;3.20;;;2.60;;
8088;SDS011;57635;49.194;12.104;2022-09-20T15:02:46;4.60;;;2.47;;
8088;SDS011;57635;49.194;12.104;2022-09-20T15:05:19;3.03;;;2.70;;
8088;SDS011;57635;49.194;12.104;2022-09-20T15:07:50;1.93;;;1.80;;
8088;SDS011;57635;49.194;12.104;2022-09-20T15:10:18;3.40;;;2.10;;
8088;SDS011;57635;49.194;12.104;2022-09-20T15:12:49;2.37;;;2.17;;
8088;SDS011;57635;49.194;12.104;2022-09-20T15:15:17;3.53;;;3.30;;
8088;SDS011;57635;49.194;12.104;2022-09-20T15:17:46;5.10;;;4.80;;
8088;SDS011;57635;49.194;12.104;2022-09-20T15:20:16;3.00;;;2.80;;
8088;SDS011;57635;49.194;12.104;2022-09-20T15:22:49;3.30;;;3.00;;
8088;SDS011;57635;49.194;12.104;2022-09-20T15:25:19;4.33;;;3.27;;
8088;SDS011;57635;49.194;12.104;2022-09-20T15:27:49;4.70;;;3.27;;
8088;SDS011;57635;49.194;12.104;2022-09-20T15:30:17;3.77;;;2.93;;
8088;SDS011;57635;49.194;12.104;2022-09-20T15:32:46;4.57;;;3.13;;
8088;SDS011;57635;49.194;12.104;2022-09-20T15:35:15;3.70;;;3.00;;
8088;SDS011;57635;49.194;12.104;2022-09-20T15:37:43;4.90;;;4.27;;
8088;SDS011;57635;49.194;12.104;2022-09-20T15:40:12;3.90;;;3.60;;
8088;SDS011;57635;49.194;12.104;2022-09-20T15:42:40;2.30;;;2.07;;
8088;SDS011;57635;49.194;12.104;2022-09-20T15:45:11;2.87;;;2.63;;
8088;SDS011;57635;49.194;12.104;2022-09-20T15:47:40;2.50;;;2.40;;
8088;SDS011;57635;49.194;12.104;2022-09-20T15:50:09;3.50;;;3.20;;
8088;SDS011;57635;49.194;12.104;2022-09-20T15:52:38;3.63;;;3.13;;
8088;SDS011;57635;49.194;12.104;2022-09-20T15:55:07;1.80;;;1.70;;
8088;SDS011;57635;49.194;12.104;2022-09-20T15:57:36;2.93;;;2.50;;
8088;SDS011;57635;49.194;12.104;2022-09-20T16:00:07;2.30;;;1.80;;
8088;SDS011;57635;49.194;12.104;2022-09-20T16:02:38;2.30;;;1.88;;
8088;SDS011;57635;49.194;12.104;2022-09-20T16:05:06;2.90;;;1.53;;
8088;SDS011;57635;49.194;12.104;2022-09-20T16:07:36;1.40;;;1.33;;
8088;SDS011;57635;49.194;12.104;2022-09-20T16:10:05;2.47;;;1.43;;
8088;SDS011;57635;49.194;12.104;2022-09-20T16:12:34;1.10;;;1.10;;
8088;SDS011;57635;49.194;12.104;2022-09-20T16:15:02;2.97;;;1.83;;
8088;SDS011;57635;49.194;12.104;2022-09-20T16:17:31;1.60;;;1.50;;
8088;SDS011;57635;49.194;12.104;2022-09-20T16:20:19;1.90;;;1.70;;
8088;SDS011;57635;49.194;12.104;2022-09-20T16:22:48;2.50;;;2.30;;
8088;SDS011;57635;49.194;12.104;2022-09-20T16:25:17;1.90;;;1.80;;
8088;SDS011;57635;49.194;12.104;2022-09-20T16:27:46;4.27;;;3.33;;
8088;SDS011;57635;49.194;12.104;2022-09-20T16:30:14;3.20;;;3.00;;
8088;SDS011;57635;49.194;12.104;2022-09-20T16:32:43;2.70;;;2.50;;
8088;SDS011;57635;49.194;12.104;2022-09-20T16:35:11;2.67;;;2.47;;
8088;SDS011;57635;49.194;12.104;2022-09-20T16:37:43;2.87;;;2.67;;
8088;SDS011;57635;49.194;12.104;2022-09-20T16:42:09;5.20;;;3.20;;
8088;SDS011;57635;49.194;12.104;2022-09-20T16:44:39;2.93;;;2.73;;